Time;durP1;ratioP1;P1;durP2;ratioP2;P2;SDS_P1;SDS_P2;PMS_P1;PMS_P2;Temp;Humidity;BMP_temperature;BMP_pressure;BME280_temperature;BME280_humidity;BME280_pressure;Samples;Min_cycle;Max_cycle;Signal;HPM_P1;HPM_P2
2023/11/11 00:00:11;;;;;;;0.00;0.00;;;;;;;11.73;65.28;98537.53;4402735;32;32941;-87
2023/11/11 00:02:40;;;;;;;0.22;0.22;;;;;;;11.35;66.53;98538.34;4409409;32;34067;-87
2023/11/11 00:05:08;;;;;;;0.30;0.30;;;;;;;11.28;67.07;98532.59;4424160;32;32424;-87
2023/11/11 00:07:36;;;;;;;0.93;0.85;;;;;;;11.50;66.78;98529.37;4423907;32;32992;-87
2023/11/11 00:10:05;;;;;;;1.00;0.30;;;;;;;11.44;66.09;98527.16;4423839;32;34102;-86
2023/11/11 00:12:34;;;;;;;0.70;0.70;;;;;;;11.33;66.51;98524.38;4423891;32;34444;-87
2023/11/11 00:15:04;;;;;;;0.55;0.55;;;;;;;11.24;67.55;98527.63;4409814;32;32308;-87
2023/11/11 00:17:33;;;;;;;0.77;0.77;;;;;;;11.48;66.54;98522.47;4419527;32;32718;-87
2023/11/11 00:20:01;;;;;;;0.00;0.00;;;;;;;11.25;67.41;98526.66;4409917;32;33119;-87
2023/11/11 00:22:29;;;;;;;0.20;0.20;;;;;;;11.34;67.52;98525.22;4421651;32;33914;-86
2023/11/11 00:24:57;;;;;;;0.40;0.40;;;;;;;11.34;67.49;98519.91;4405886;32;33391;-86
2023/11/11 00:27:27;;;;;;;0.43;0.43;;;;;;;11.31;67.46;98512.22;4406843;32;34440;-86
2023/11/11 00:29:56;;;;;;;0.70;0.50;;;;;;;11.66;66.45;98520.38;4413629;32;33543;-86
2023/11/11 00:32:24;;;;;;;0.52;0.47;;;;;;;11.52;66.40;98511.59;4410691;32;32974;-86
2023/11/11 00:34:53;;;;;;;0.80;0.80;;;;;;;11.40;67.10;98516.88;4420664;32;33309;-84
2023/11/11 00:37:23;;;;;;;1.98;0.65;;;;;;;11.74;65.96;98512.78;4421434;32;32752;-83
2023/11/11 00:39:51;;;;;;;1.27;0.43;;;;;;;11.68;66.05;98521.13;4397501;32;34102;-85
2023/11/11 00:42:19;;;;;;;0.00;0.00;;;;;;;11.80;65.29;98512.34;4432685;32;33510;-85
2023/11/11 00:44:48;;;;;;;0.28;0.20;;;;;;;11.59;65.87;98519.12;4401962;32;31852;-85
2023/11/11 00:47:17;;;;;;;0.73;0.73;;;;;;;11.71;65.56;98518.28;4428203;32;33616;-85
2023/11/11 00:49:49;;;;;;;0.00;0.00;;;;;;;11.33;66.29;98519.09;4426620;32;33611;-84
2023/11/11 00:52:17;;;;;;;1.17;0.65;;;;;;;11.33;66.81;98526.16;4419239;32;32958;-85
2023/11/11 00:54:47;;;;;;;2.37;0.77;;;;;;;11.51;66.33;98517.84;4415217;32;33695;-85
2023/11/11 00:57:15;;;;;;;0.45;0.45;;;;;;;11.58;65.82;98501.56;4428033;32;33227;-85
2023/11/11 00:59:43;;;;;;;1.15;0.85;;;;;;;11.35;66.56;98509.28;4403511;32;33799;-85
2023/11/11 01:02:11;;;;;;;0.75;0.55;;;;;;;11.22;67.43;98508.41;4427154;32;32509;-85
2023/11/11 01:04:39;;;;;;;0.37;0.37;;;;;;;11.47;66.99;98503.12;4420640;32;32455;-85
2023/11/11 01:07:09;;;;;;;1.45;0.60;;;;;;;11.30;67.10;98503.44;4421432;32;33983;-85
2023/11/11 01:09:37;;;;;;;0.32;0.32;;;;;;;11.32;67.41;98500.69;4397396;32;33790;-85
2023/11/11 01:12:05;;;;;;;0.03;0.03;;;;;;;11.43;66.75;98499.00;4409064;32;33656;-85
2023/11/11 01:14:34;;;;;;;0.10;0.10;;;;;;;11.33;67.31;98507.66;4425113;32;34142;-85
2023/11/11 01:17:02;;;;;;;0.70;0.70;;;;;;;11.29;67.72;98507.03;4411658;32;136078;-85
2023/11/11 01:19:30;;;;;;;0.82;0.30;;;;;;;11.31;68.07;98505.13;4432465;32;33039;-86
2023/11/11 01:21:59;;;;;;;0.45;0.40;;;;;;;11.48;67.56;98502.19;4429149;32;33439;-86
2023/11/11 01:24:27;;;;;;;0.52;0.52;;;;;;;11.43;68.02;98504.28;4411115;32;33079;-85
2023/11/11 01:26:55;;;;;;;0.13;0.13;;;;;;;11.43;67.56;98504.28;4401682;32;32850;-84
2023/11/11 01:29:23;;;;;;;1.33;1.33;;;;;;;11.40;67.69;98493.94;4417111;32;32834;-84
2023/11/11 01:31:50;;;;;;;0.35;0.35;;;;;;;11.34;68.25;98486.41;4422069;32;33800;-85
2023/11/11 01:34:18;;;;;;;0.52;0.52;;;;;;;11.48;67.59;98488.97;4421994;32;33132;-84
2023/11/11 01:36:46;;;;;;;1.15;0.80;;;;;;;11.46;67.81;98492.69;4397516;32;32886;-84
2023/11/11 01:39:13;;;;;;;0.30;0.30;;;;;;;11.44;67.87;98495.44;4422065;32;33557;-84
2023/11/11 01:41:42;;;;;;;7.00;2.42;;;;;;;11.42;68.28;98489.38;4405164;32;33906;-84
2023/11/11 01:44:10;;;;;;;1.00;0.88;;;;;;;11.55;67.77;98481.47;4416566;32;33724;-84
2023/11/11 01:46:37;;;;;;;0.30;0.30;;;;;;;11.70;67.55;98484.84;4431206;32;33633;-84
2023/11/11 01:49:06;;;;;;;0.65;0.65;;;;;;;11.69;67.35;98491.09;4422623;32;33608;-83
2023/11/11 01:51:35;;;;;;;0.32;0.32;;;;;;;11.62;67.54;98482.72;4421616;32;33666;-84
2023/11/11 01:54:04;;;;;;;1.17;1.05;;;;;;;11.70;67.47;98482.22;4421939;32;34114;-84
2023/11/11 01:56:31;;;;;;;2.50;1.92;;;;;;;11.76;67.14;98476.50;4419997;32;33441;-83
2023/11/11 01:59:00;;;;;;;0.73;0.73;;;;;;;11.57;67.95;98474.28;4402418;32;33792;-83
2023/11/11 02:01:27;;;;;;;0.95;0.90;;;;;;;11.70;67.40;98479.56;4409425;32;33865;-83
2023/11/11 02:03:55;;;;;;;1.12;1.02;;;;;;;11.65;67.89;98486.97;4408835;32;32327;-83
2023/11/11 02:06:25;;;;;;;1.45;1.17;;;;;;;11.59;67.45;98477.69;4415902;32;33082;-83
2023/11/11 02:08:54;;;;;;;0.88;0.70;;;;;;;11.65;67.60;98481.69;4415189;32;33623;-84
2023/11/11 02:11:22;;;;;;;0.45;0.43;;;;;;;11.65;67.31;98484.34;4409621;32;34462;-87
2023/11/11 02:13:50;;;;;;;1.40;1.30;;;;;;;11.68;67.58;98486.75;4422478;32;32488;-87
2023/11/11 02:16:18;;;;;;;0.35;0.35;;;;;;;11.66;67.38;98493.94;4403095;32;33237;-87
2023/11/11 02:18:46;;;;;;;1.10;1.08;;;;;;;11.59;67.39;98497.97;4400665;32;33531;-87
2023/11/11 02:21:15;;;;;;;0.40;0.40;;;;;;;11.58;67.74;98498.91;4421559;32;32476;-86
2023/11/11 02:23:43;;;;;;;1.40;1.30;;;;;;;11.63;67.39;98496.78;4408201;32;33325;-87
2023/11/11 02:26:11;;;;;;;1.90;1.65;;;;;;;11.59;67.92;98501.47;4416378;32;32294;-87
2023/11/11 02:28:43;;;;;;;1.45;1.35;;;;;;;11.66;67.81;98493.94;4419006;32;33356;-88
2023/11/11 02:31:13;;;;;;;6.05;1.80;;;;;;;11.67;67.99;98495.62;4422453;32;33910;-88
2023/11/11 02:33:40;;;;;;;1.10;1.02;;;;;;;11.64;67.89;98480.00;4415940;32;33959;-87
2023/11/11 02:36:09;;;;;;;2.92;1.45;;;;;;;11.65;67.76;98487.81;4417767;32;33593;-87
2023/11/11 02:38:37;;;;;;;1.45;1.35;;;;;;;11.66;67.82;98478.09;4389110;32;33803;-87
2023/11/11 02:41:05;;;;;;;1.92;1.23;;;;;;;11.61;68.08;98481.06;4427514;32;33537;-87
2023/11/11 02:43:33;;;;;;;1.83;0.95;;;;;;;11.65;68.19;98479.88;4406018;32;32179;-86
2023/11/11 02:46:01;;;;;;;2.55;1.65;;;;;;;11.86;67.03;98480.22;4422844;32;32798;-86
2023/11/11 02:48:31;;;;;;;0.75;0.75;;;;;;;11.77;67.12;98480.81;4416960;32;34000;-87
2023/11/11 02:50:59;;;;;;;1.85;0.98;;;;;;;11.62;67.47;98477.44;4404748;32;34213;-87
2023/11/11 02:53:27;;;;;;;1.23;1.17;;;;;;;11.56;68.12;98474.38;4416080;32;32164;-86
2023/11/11 02:55:55;;;;;;;2.15;1.95;;;;;;;12.12;65.64;98464.31;4405458;32;34195;-87
2023/11/11 02:58:23;;;;;;;0.68;0.68;;;;;;;12.27;64.66;98468.50;4421756;32;33738;-86
2023/11/11 03:00:53;;;;;;;1.17;0.90;;;;;;;12.11;65.01;98446.75;4406658;32;32543;-86
2023/11/11 03:03:21;;;;;;;1.42;1.37;;;;;;;11.95;65.32;98445.19;4416459;32;33634;-86
2023/11/11 03:05:51;;;;;;;0.50;0.30;;;;;;;11.93;65.64;98436.53;4403509;32;32779;-86
2023/11/11 03:08:20;;;;;;;2.30;1.80;;;;;;;11.71;66.45;98437.16;4420808;32;32265;-85
2023/11/11 03:10:48;;;;;;;0.30;0.30;;;;;;;11.48;67.09;98432.63;4410129;32;34568;-86
2023/11/11 03:13:16;;;;;;;5.87;1.92;;;;;;;11.60;67.25;98428.28;4410678;32;33127;-86
2023/11/11 03:15:44;;;;;;;0.80;0.80;;;;;;;11.65;67.44;98428.81;4422692;32;34639;-86
2023/11/11 03:18:13;;;;;;;2.65;1.40;;;;;;;11.90;66.17;98426.16;4417405;32;33049;-86
2023/11/11 03:20:42;;;;;;;3.15;0.88;;;;;;;11.98;65.75;98418.53;4402959;32;33077;-86
2023/11/11 03:23:10;;;;;;;2.60;1.95;;;;;;;11.97;65.74;98414.19;4400433;32;33158;-86
2023/11/11 03:25:37;;;;;;;1.70;1.17;;;;;;;12.04;65.44;98415.44;4407408;32;33740;-87
2023/11/11 03:28:06;;;;;;;0.60;0.60;;;;;;;11.78;66.25;98403.19;4414957;32;32902;-86
2023/11/11 03:30:35;;;;;;;0.75;0.75;;;;;;;11.53;66.99;98404.91;4417695;32;33489;-86
2023/11/11 03:33:03;;;;;;;4.68;1.23;;;;;;;11.77;66.59;98401.50;4403309;32;32121;-86
2023/11/11 03:35:31;;;;;;;0.68;0.68;;;;;;;11.88;66.21;98404.28;4401012;32;33521;-85
2023/11/11 03:37:59;;;;;;;0.60;0.60;;;;;;;11.64;66.97;98404.19;4417885;32;33798;-85
2023/11/11 03:40:27;;;;;;;8.30;2.05;;;;;;;11.64;67.32;98400.69;4402373;32;32841;-86
2023/11/11 03:42:54;;;;;;;0.85;0.68;;;;;;;11.67;67.41;98400.44;4418729;32;32956;-85
2023/11/11 03:45:24;;;;;;;1.25;1.15;;;;;;;11.82;67.09;98411.75;4416204;32;33550;-85
2023/11/11 03:47:52;;;;;;;1.65;1.55;;;;;;;11.88;66.68;98412.22;4415587;32;33948;-86
2023/11/11 03:50:20;;;;;;;2.28;1.37;;;;;;;11.65;67.57;98423.53;4416166;32;34339;-86
2023/11/11 03:52:48;;;;;;;0.52;0.52;;;;;;;11.57;67.67;98421.41;4403364;32;32287;-86
2023/11/11 03:55:16;;;;;;;4.15;1.25;;;;;;;11.63;67.79;98417.47;4413189;32;32544;-86
2023/11/11 03:57:47;;;;;;;0.25;0.25;;;;;;;11.73;67.13;98416.75;4403669;32;34551;-86
2023/11/11 04:00:19;;;;;;;2.20;1.40;;;;;;;11.65;67.59;98427.00;4414138;32;33733;-87
2023/11/11 04:02:48;;;;;;;0.10;0.10;;;;;;;11.67;67.64;98411.03;4401575;32;33253;-86
2023/11/11 04:05:16;;;;;;;1.15;1.08;;;;;;;11.59;67.67;98414.22;4416635;32;33970;-86
2023/11/11 04:07:46;;;;;;;1.17;1.10;;;;;;;11.58;67.86;98406.38;4415908;32;33815;-86
2023/11/11 04:10:17;;;;;;;2.28;2.08;;;;;;;11.67;67.52;98408.37;4404671;32;32820;-86
2023/11/11 04:12:45;;;;;;;0.80;0.80;;;;;;;11.72;67.55;98395.69;4414865;32;32605;-86
2023/11/11 04:15:14;;;;;;;1.42;1.35;;;;;;;11.93;66.17;98393.37;4402210;32;32830;-86
2023/11/11 04:17:43;;;;;;;1.20;1.12;;;;;;;11.76;66.78;98390.06;4402842;32;33466;-86
2023/11/11 04:20:12;;;;;;;0.50;0.50;;;;;;;11.67;67.34;98393.37;4416039;32;35403;-86
2023/11/11 04:22:40;;;;;;;0.62;0.62;;;;;;;11.70;67.27;98394.97;4427154;32;34854;-86
2023/11/11 04:25:10;;;;;;;0.30;0.30;;;;;;;11.84;66.62;98386.09;4411997;32;32674;-86
2023/11/11 04:27:40;;;;;;;2.45;1.37;;;;;;;11.70;67.21;98387.03;4424004;32;33785;-85
2023/11/11 04:30:10;;;;;;;2.72;1.08;;;;;;;11.78;66.95;98387.34;4428687;32;34308;-86
2023/11/11 04:32:39;;;;;;;3.87;1.17;;;;;;;11.56;67.64;98388.00;4421872;32;32262;-85
2023/11/11 04:35:07;;;;;;;0.93;0.93;;;;;;;11.70;67.43;98397.59;4428347;32;33443;-85
2023/11/11 04:37:35;;;;;;;4.43;1.85;;;;;;;11.99;66.37;98380.53;4423104;32;33800;-85
2023/11/11 04:40:07;;;;;;;1.58;1.40;;;;;;;11.93;66.13;98382.78;4421479;32;33239;-85
2023/11/11 04:42:37;;;;;;;1.77;1.65;;;;;;;11.71;67.06;98380.78;4415464;32;32408;-85
2023/11/11 04:45:06;;;;;;;0.82;0.82;;;;;;;11.50;67.83;98373.41;4436523;32;32534;-85
2023/11/11 04:47:34;;;;;;;2.30;2.10;;;;;;;11.76;67.15;98378.66;4416436;32;33826;-86
2023/11/11 04:50:03;;;;;;;0.70;0.70;;;;;;;11.67;67.37;98379.31;4425917;32;32712;-85
2023/11/11 04:52:31;;;;;;;1.00;1.00;;;;;;;11.60;67.59;98388.62;4422998;32;33513;-85
2023/11/11 04:54:59;;;;;;;0.52;0.52;;;;;;;11.63;67.33;98383.97;4406807;32;33996;-86
2023/11/11 04:57:27;;;;;;;0.75;0.75;;;;;;;11.90;66.57;98375.06;4422087;32;34019;-86
2023/11/11 04:59:55;;;;;;;1.10;0.80;;;;;;;11.71;67.27;98380.78;4414907;32;33303;-87
2023/11/11 05:02:23;;;;;;;0.52;0.52;;;;;;;11.69;67.07;98377.41;4417017;32;32611;-86
2023/11/11 05:04:51;;;;;;;0.62;0.62;;;;;;;11.71;67.35;98370.19;4423472;32;32888;-87
2023/11/11 05:07:22;;;;;;;1.77;1.67;;;;;;;11.70;67.52;98379.94;4434585;32;32798;-86
2023/11/11 05:09:54;;;;;;;2.50;0.68;;;;;;;11.59;68.03;98381.66;4424266;32;33999;-86
2023/11/11 05:12:22;;;;;;;0.37;0.13;;;;;;;11.63;68.00;98388.41;4410508;32;34121;-87
2023/11/11 05:14:52;;;;;;;2.08;0.55;;;;;;;11.87;67.00;98391.13;4426552;32;33793;-86
2023/11/11 05:17:25;;;;;;;0.32;0.32;;;;;;;11.82;66.84;98390.59;4422152;32;33764;-87
2023/11/11 05:19:55;;;;;;;0.88;0.73;;;;;;;11.73;67.67;98394.75;4425092;32;32964;-86
2023/11/11 05:22:23;;;;;;;1.87;1.48;;;;;;;11.71;67.62;98401.94;4398726;32;32177;-87
2023/11/11 05:24:51;;;;;;;1.48;1.37;;;;;;;11.77;67.58;98404.12;4413766;32;32491;-87
2023/11/11 05:27:19;;;;;;;0.70;0.70;;;;;;;11.73;67.70;98400.03;4425736;32;32829;-87
2023/11/11 05:29:47;;;;;;;0.35;0.35;;;;;;;11.75;67.95;98398.97;4423284;32;32826;-87
2023/11/11 05:32:15;;;;;;;0.62;0.62;;;;;;;11.85;67.57;98399.19;4410795;32;33325;-87
2023/11/11 05:34:44;;;;;;;1.75;1.08;;;;;;;12.03;66.44;98395.22;4421865;32;33192;-86
2023/11/11 05:37:13;;;;;;;0.85;0.85;;;;;;;12.13;65.58;98394.56;4427558;32;32724;-87
2023/11/11 05:39:47;;;;;;;2.45;0.50;;;;;;;11.94;65.97;98393.25;4408806;32;32973;-87
2023/11/11 05:42:17;;;;;;;0.57;0.57;;;;;;;11.85;66.79;98399.19;4400928;32;33352;-87
2023/11/11 05:44:45;;;;;;;0.20;0.20;;;;;;;11.95;66.20;98396.72;4409099;32;33156;-86
2023/11/11 05:47:13;;;;;;;0.25;0.25;;;;;;;11.95;66.10;98389.62;4408616;32;33081;-86
2023/11/11 05:49:41;;;;;;;1.35;0.52;;;;;;;11.97;66.24;98389.56;4416718;32;34075;-86
2023/11/11 05:52:08;;;;;;;0.20;0.20;;;;;;;12.04;65.90;98396.91;4405010;32;33539;-87
2023/11/11 05:54:36;;;;;;;0.00;0.00;;;;;;;11.93;66.28;98403.94;4404714;32;32970;-84
2023/11/11 05:57:04;;;;;;;0.25;0.25;;;;;;;12.05;65.85;98409.19;4418965;32;33949;-86
2023/11/11 05:59:32;;;;;;;3.10;1.35;;;;;;;11.92;66.58;98416.31;4424260;32;32794;-85
2023/11/11 06:02:04;;;;;;;1.23;1.23;;;;;;;12.12;65.85;98411.41;4407528;32;33066;-87
2023/11/11 06:04:35;;;;;;;2.87;2.30;;;;;;;12.20;64.80;98409.03;4396698;32;32666;-84
2023/11/11 06:07:04;;;;;;;1.80;1.17;;;;;;;12.13;65.50;98413.09;4422340;32;33656;-85
2023/11/11 06:09:32;;;;;;;1.77;1.62;;;;;;;12.01;65.60;98418.31;4418875;32;32604;-86
2023/11/11 06:12:01;;;;;;;3.92;3.00;;;;;;;12.08;65.75;98428.44;4425434;32;33579;-87
2023/11/11 06:14:29;;;;;;;1.67;0.73;;;;;;;12.13;65.22;98428.97;4412211;32;34060;-86
2023/11/11 06:16:57;;;;;;;1.60;1.40;;;;;;;12.04;65.53;98433.94;4417642;32;33750;-86
2023/11/11 06:19:26;;;;;;;1.33;1.12;;;;;;;12.24;65.09;98435.16;4419484;32;32749;-87
2023/11/11 06:21:53;;;;;;;0.75;0.75;;;;;;;12.04;65.56;98433.94;4408870;32;33743;-86
2023/11/11 06:24:21;;;;;;;1.48;1.37;;;;;;;11.99;65.95;98428.16;4407043;32;34101;-86
2023/11/11 06:26:50;;;;;;;0.85;0.85;;;;;;;11.90;66.00;98431.44;4406600;32;33114;-85
2023/11/11 06:29:18;;;;;;;1.52;1.42;;;;;;;11.94;65.77;98430.28;4406945;32;33802;-85
2023/11/11 06:31:46;;;;;;;2.35;2.10;;;;;;;11.86;66.30;98437.06;4407150;32;34074;-84
2023/11/11 06:34:14;;;;;;;1.30;0.55;;;;;;;12.00;66.07;98429.00;4405700;32;34553;-85
2023/11/11 06:36:42;;;;;;;1.85;1.17;;;;;;;11.81;66.82;98429.41;4406974;32;33078;-85
2023/11/11 06:39:09;;;;;;;1.85;1.48;;;;;;;11.93;66.47;98428.59;4407386;32;33490;-85
2023/11/11 06:41:37;;;;;;;2.95;0.90;;;;;;;11.72;66.90;98436.19;4406871;32;33119;-85
2023/11/11 06:44:05;;;;;;;2.10;1.37;;;;;;;11.87;66.85;98439.63;4394233;32;34134;-87
2023/11/11 06:46:32;;;;;;;0.95;0.93;;;;;;;11.93;66.59;98430.41;4416159;32;33920;-86
2023/11/11 06:49:01;;;;;;;2.15;1.10;;;;;;;12.00;66.12;98429.81;4407158;32;32657;-86
2023/11/11 06:51:28;;;;;;;0.75;0.75;;;;;;;11.85;66.63;98424.78;4420873;32;33116;-85
2023/11/11 06:53:56;;;;;;;1.98;1.45;;;;;;;12.02;66.00;98425.28;4419975;32;33280;-86
2023/11/11 06:56:24;;;;;;;1.27;1.17;;;;;;;11.61;67.68;98419.41;4407460;32;33834;-85
2023/11/11 06:58:51;;;;;;;4.32;1.42;;;;;;;11.64;66.83;98427.12;4407690;32;32970;-85
2023/11/11 07:01:23;;;;;;;1.45;1.10;;;;;;;11.45;67.45;98427.56;4395596;32;32756;-87
2023/11/11 07:03:51;;;;;;;0.60;0.47;;;;;;;11.29;69.10;98427.75;4396604;32;32902;-87
2023/11/11 07:06:22;;;;;;;2.17;0.93;;;;;;;11.32;68.50;98432.84;4407786;32;34441;-86
2023/11/11 07:08:51;;;;;;;5.55;1.45;;;;;;;11.50;67.84;98426.28;4409666;32;32917;-86
2023/11/11 07:11:19;;;;;;;0.65;0.65;;;;;;;11.63;67.19;98433.34;4395919;32;32057;-87
2023/11/11 07:13:47;;;;;;;3.40;1.15;;;;;;;11.51;67.66;98421.84;4404875;32;32589;-86
2023/11/11 07:16:19;;;;;;;2.83;1.50;;;;;;;11.82;66.72;98425.88;4408263;32;34722;-87
2023/11/11 07:18:48;;;;;;;6.07;2.25;;;;;;;11.62;66.92;98418.44;4416374;32;32904;-86
2023/11/11 07:21:24;;;;;;;2.12;1.95;;;;;;;11.70;67.22;98426.69;4420460;32;33319;-85
2023/11/11 07:23:52;;;;;;;2.47;1.20;;;;;;;11.91;66.34;98421.72;4400123;32;32868;-85
2023/11/11 07:26:21;;;;;;;3.60;1.50;;;;;;;12.06;65.51;98428.56;4412235;32;32996;-86
2023/11/11 07:28:49;;;;;;;1.65;1.55;;;;;;;12.05;65.48;98430.34;4427263;32;33055;-85
2023/11/11 07:31:18;;;;;;;1.45;1.35;;;;;;;11.82;65.98;98428.53;4436703;32;33623;-86
2023/11/11 07:33:46;;;;;;;0.98;0.98;;;;;;;11.71;66.86;98429.22;4424289;32;33846;-85
2023/11/11 07:36:16;;;;;;;2.40;1.67;;;;;;;11.59;67.69;98434.53;4412025;32;33842;-86
2023/11/11 07:38:46;;;;;;;1.85;1.75;;;;;;;11.66;67.17;98428.69;4423830;32;33826;-85
2023/11/11 07:41:19;;;;;;;2.03;1.83;;;;;;;11.74;67.17;98433.47;4417515;32;33239;-85
2023/11/11 07:43:48;;;;;;;1.17;1.15;;;;;;;11.72;66.84;98432.69;4424372;32;34303;-85
2023/11/11 07:46:20;;;;;;;1.73;0.85;;;;;;;11.93;66.49;98431.22;4408751;32;32951;-85
2023/11/11 07:48:47;;;;;;;2.95;2.20;;;;;;;11.71;67.02;98428.38;4421045;32;34757;-84
2023/11/11 07:51:15;;;;;;;1.83;1.73;;;;;;;11.87;66.68;98420.22;4422229;32;33813;-84
2023/11/11 07:53:43;;;;;;;1.33;0.77;;;;;;;11.88;66.61;98425.44;4416941;32;33255;-84
2023/11/11 07:56:11;;;;;;;2.28;1.90;;;;;;;11.83;66.86;98422.28;4415672;32;34705;-83
2023/11/11 07:58:39;;;;;;;0.32;0.32;;;;;;;11.94;65.64;98418.84;4409522;32;33793;-84
2023/11/11 08:01:08;;;;;;;3.25;2.15;;;;;;;12.11;65.59;98415.84;4410133;32;33550;-84
2023/11/11 08:03:36;;;;;;;0.37;0.37;;;;;;;11.99;65.95;98417.56;4398030;32;33720;-83
2023/11/11 08:06:05;;;;;;;0.73;0.73;;;;;;;11.90;66.61;98420.88;4421782;32;34472;-84
2023/11/11 08:08:36;;;;;;;0.70;0.65;;;;;;;11.97;66.35;98418.66;4421336;32;33567;-82
2023/11/11 08:11:06;;;;;;;1.62;1.37;;;;;;;11.89;66.81;98416.53;4421635;32;33146;-85
2023/11/11 08:13:34;;;;;;;2.20;2.10;;;;;;;11.99;66.44;98422.84;4423019;32;32958;-86
2023/11/11 08:16:03;;;;;;;2.30;1.27;;;;;;;11.92;66.70;98412.84;4421116;32;35340;-85
2023/11/11 08:18:32;;;;;;;4.80;2.50;;;;;;;11.87;66.50;98407.87;4406448;32;33461;-85
2023/11/11 08:21:12;;;;;;;1.33;1.23;;;;;;;12.02;66.31;98412.06;4385623;32;34284;-85
2023/11/11 08:23:40;;;;;;;2.53;1.65;;;;;;;12.07;65.88;98410.91;4387944;32;34067;-85
2023/11/11 08:26:09;;;;;;;2.20;0.68;;;;;;;11.93;65.99;98418.00;4394496;32;33515;-86
2023/11/11 08:28:37;;;;;;;1.23;1.05;;;;;;;11.87;67.08;98409.66;4395866;32;33229;-85
2023/11/11 08:31:06;;;;;;;0.95;0.95;;;;;;;11.75;67.10;98409.53;4411165;32;32729;-87
2023/11/11 08:33:34;;;;;;;0.45;0.45;;;;;;;11.44;68.61;98404.69;4390152;32;33069;-86
2023/11/11 08:36:02;;;;;;;0.45;0.43;;;;;;;11.70;67.09;98410.81;4392071;32;33112;-83
2023/11/11 08:38:30;;;;;;;0.60;0.60;;;;;;;11.77;66.86;98415.59;4416224;32;33680;-84
2023/11/11 08:40:58;;;;;;;0.13;0.13;;;;;;;11.47;68.12;98410.63;4395532;32;32721;-84
2023/11/11 08:43:26;;;;;;;0.35;0.35;;;;;;;11.57;67.92;98415.28;4388941;32;32636;-83
2023/11/11 08:45:58;;;;;;;2.47;2.28;;;;;;;11.75;67.35;98408.69;4390335;32;33029;-83
2023/11/11 08:48:26;;;;;;;1.35;0.70;;;;;;;11.64;67.90;98416.56;4393750;32;32442;-83
2023/11/11 08:50:55;;;;;;;0.55;0.55;;;;;;;11.45;68.38;98407.25;4390919;32;32459;-83
2023/11/11 08:53:23;;;;;;;1.17;1.12;;;;;;;11.83;67.18;98411.69;4391652;32;34029;-83
2023/11/11 08:55:51;;;;;;;1.35;1.25;;;;;;;11.66;67.75;98412.00;4420972;32;33484;-82
2023/11/11 08:58:19;;;;;;;1.20;0.60;;;;;;;11.82;67.25;98411.75;4390717;32;33616;-83
2023/11/11 09:00:47;;;;;;;0.30;0.30;;;;;;;11.81;67.04;98416.19;4391903;32;32300;-82
2023/11/11 09:03:15;;;;;;;0.68;0.68;;;;;;;11.86;66.60;98415.91;4395536;32;33838;-82
2023/11/11 09:05:43;;;;;;;1.25;1.15;;;;;;;11.77;67.12;98420.88;4398568;32;33071;-82
2023/11/11 09:08:11;;;;;;;1.00;1.00;;;;;;;11.80;67.34;98409.22;4390100;32;32988;-83
2023/11/11 09:10:40;;;;;;;1.45;1.27;;;;;;;11.83;67.26;98416.13;4383632;32;32491;-82
2023/11/11 09:13:10;;;;;;;1.20;0.65;;;;;;;11.81;67.28;98416.19;4407943;32;33672;-84
2023/11/11 09:15:39;;;;;;;0.93;0.93;;;;;;;11.89;66.63;98423.63;4392469;32;33766;-83
2023/11/11 09:18:07;;;;;;;1.48;0.62;;;;;;;11.79;67.00;98418.13;4397073;32;33038;-83
2023/11/11 09:20:42;;;;;;;2.15;1.95;;;;;;;11.82;66.90;98415.28;4401792;32;32886;-83
2023/11/11 09:23:11;;;;;;;4.22;2.90;;;;;;;11.82;67.21;98417.94;4407590;32;33936;-83
2023/11/11 09:25:39;;;;;;;6.93;1.80;;;;;;;11.75;66.77;98414.00;4410225;32;34627;-83
2023/11/11 09:28:08;;;;;;;4.50;2.15;;;;;;;11.58;67.24;98419.59;4391924;32;32787;-83
2023/11/11 09:30:36;;;;;;;1.95;0.90;;;;;;;11.43;68.05;98414.44;4408467;32;32081;-83
2023/11/11 09:33:04;;;;;;;0.88;0.88;;;;;;;11.62;66.91;98413.16;4414432;32;32760;-83
2023/11/11 09:35:32;;;;;;;0.52;0.43;;;;;;;11.74;66.58;98399.09;4410419;32;33796;-83
2023/11/11 09:37:59;;;;;;;0.70;0.70;;;;;;;11.62;67.50;98402.56;4408482;32;33165;-83
2023/11/11 09:40:27;;;;;;;3.22;0.75;;;;;;;11.22;69.63;98403.56;4414174;32;33435;-83
2023/11/11 09:42:55;;;;;;;0.20;0.20;;;;;;;11.24;69.60;98398.16;4411493;32;33811;-84
2023/11/11 09:45:23;;;;;;;0.17;0.17;;;;;;;11.17;69.52;98410.94;4407286;32;33565;-83
2023/11/11 09:47:52;;;;;;;0.98;0.98;;;;;;;11.42;69.24;98407.47;4414514;32;33062;-83
2023/11/11 09:50:23;;;;;;;0.30;0.20;;;;;;;11.35;68.85;98406.22;4410625;32;32711;-83
2023/11/11 09:52:54;;;;;;;0.85;0.85;;;;;;;11.38;69.01;98395.41;4407728;32;32828;-83
2023/11/11 09:55:26;;;;;;;0.75;0.75;;;;;;;11.70;67.87;98392.31;4383809;32;32588;-83
2023/11/11 09:57:54;;;;;;;0.80;0.80;;;;;;;11.31;69.44;98394.16;4411191;32;34427;-83
2023/11/11 10:00:22;;;;;;;0.45;0.30;;;;;;;11.53;68.35;98389.03;4411695;32;32570;-83
2023/11/11 10:02:50;;;;;;;0.57;0.57;;;;;;;11.40;69.28;98393.53;4412250;32;34028;-83
2023/11/11 10:05:18;;;;;;;0.43;0.43;;;;;;;11.39;69.23;98402.38;4402435;32;32897;-83
2023/11/11 10:07:47;;;;;;;8.70;1.05;;;;;;;11.22;69.69;98405.34;4413251;32;34512;-83
2023/11/11 10:10:16;;;;;;;1.45;1.35;;;;;;;11.02;70.30;98412.84;4412744;32;31969;-83
2023/11/11 10:12:44;;;;;;;1.65;0.50;;;;;;;11.28;69.67;98405.75;4413804;32;33745;-83
2023/11/11 10:15:12;;;;;;;1.23;1.05;;;;;;;11.48;68.83;98400.91;4415809;32;32927;-83
2023/11/11 10:17:41;;;;;;;19.10;7.90;;;;;;;11.67;67.81;98397.81;4404063;32;33905;-83
2023/11/11 10:20:11;;;;;;;4.53;4.15;;;;;;;11.87;66.37;98407.87;4400845;32;32314;-83
2023/11/11 10:22:47;;;;;;;2.35;1.95;;;;;;;11.84;66.70;98397.50;4423221;32;32838;-83
2023/11/11 10:25:17;;;;;;;1.40;1.08;;;;;;;11.60;67.58;98396.56;4423369;32;33973;-83
2023/11/11 10:27:48;;;;;;;4.03;1.27;;;;;;;11.85;66.84;98398.34;4404699;32;33632;-83
2023/11/11 10:30:18;;;;;;;5.35;2.35;;;;;;;11.67;67.52;98393.37;4409444;32;33180;-83
2023/11/11 10:32:48;;;;;;;0.30;0.30;;;;;;;12.03;66.46;98394.38;4418220;32;33640;-83
2023/11/11 10:35:17;;;;;;;0.57;0.37;;;;;;;11.90;66.36;98385.63;4423755;32;34686;-83
2023/11/11 10:37:46;;;;;;;0.50;0.50;;;;;;;11.90;66.88;98389.12;4405695;32;33715;-82
2023/11/11 10:40:18;;;;;;;;;;;;;;;11.51;68.23;98396.25;4416635;32;33456;-82
2023/11/11 10:42:47;;;;;;;1.30;0.82;;;;;;;11.64;68.25;98387.47;4412336;32;32844;-82
2023/11/11 10:45:15;;;;;;;2.33;1.80;;;;;;;11.15;70.42;98390.84;4404387;32;32952;-82
2023/11/11 10:47:45;;;;;;;3.87;3.03;;;;;;;10.84;71.80;98390.31;4398918;32;33739;-82
2023/11/11 10:50:13;;;;;;;4.95;2.47;;;;;;;11.31;69.97;98399.44;4411237;32;32400;-83
2023/11/11 10:52:41;;;;;;;4.00;1.10;;;;;;;11.12;70.68;98399.84;4409902;32;32741;-82
2023/11/11 10:55:10;;;;;;;2.75;2.55;;;;;;;11.29;70.32;98393.41;4398930;32;32949;-82
2023/11/11 10:57:42;;;;;;;1.85;1.75;;;;;;;11.22;70.38;98395.63;4423016;32;32881;-82
2023/11/11 11:00:20;;;;;;;1.10;0.52;;;;;;;11.47;69.38;98388.62;4414945;32;32210;-82
2023/11/11 11:02:51;;;;;;;2.35;2.17;;;;;;;11.14;70.53;98391.81;4408081;32;33962;-82
2023/11/11 11:05:33;;;;;;;1.33;1.33;;;;;;;11.22;70.47;98397.44;4402909;32;33874;-82
2023/11/11 11:08:10;;;;;;;1.60;1.50;;;;;;;11.55;68.95;98391.59;4424322;32;32790;-82
2023/11/11 11:10:48;;;;;;;7.70;2.58;;;;;;;11.38;69.53;98395.41;4424187;32;33220;-83
2023/11/11 11:13:18;;;;;;;0.85;0.85;;;;;;;11.23;70.18;98393.81;4406708;32;32947;-82
2023/11/11 11:15:46;;;;;;;3.50;2.42;;;;;;;11.15;70.87;98393.50;4424951;32;34010;-83
2023/11/11 11:18:22;;;;;;;4.07;1.35;;;;;;;11.67;69.28;98392.53;4413697;32;33799;-88
2023/11/11 11:20:52;;;;;;;5.60;1.75;;;;;;;11.65;68.97;98389.16;4411085;32;32432;-88
2023/11/11 11:23:22;;;;;;;1.60;1.50;;;;;;;11.35;70.33;98390.34;4423190;32;33630;-84
2023/11/11 11:25:50;;;;;;;1.48;0.62;;;;;;;11.42;69.48;98396.88;4409376;32;33243;-82
2023/11/11 11:28:22;;;;;;;0.82;0.82;;;;;;;10.91;71.14;98402.13;4407797;32;32697;-83
2023/11/11 11:30:58;;;;;;;2.10;1.40;;;;;;;10.34;72.56;98409.47;4409088;32;33613;-83
2023/11/11 11:33:28;;;;;;;0.62;0.62;;;;;;;10.98;69.40;98398.16;4393615;32;33194;-83
2023/11/11 11:35:58;;;;;;;1.30;1.17;;;;;;;10.50;71.09;98413.66;4419597;32;33946;-83
2023/11/11 11:38:31;;;;;;;1.40;1.30;;;;;;;10.47;71.20;98403.28;4428121;32;33487;-82
2023/11/11 11:41:05;;;;;;;2.45;1.00;;;;;;;10.31;71.97;98412.31;4409086;32;32636;-82